createdAt,value
2023-04-30T00:02:38.109Z,76.14
2023-04-30T00:05:36.072Z,75.08
2023-04-30T00:08:33.475Z,74.53
2023-04-30T00:11:31.444Z,74.33
2023-04-30T00:14:28.824Z,74.05
2023-04-30T00:17:26.694Z,73.26
2023-04-30T00:20:24.614Z,72.96
2023-04-30T00:23:22.055Z,72.96
2023-04-30T00:26:19.956Z,72.64
2023-04-30T00:29:17.808Z,72.69
2023-04-30T00:32:15.804Z,72.69
2023-04-30T00:35:13.188Z,72.43
2023-04-30T00:38:11.008Z,72.45
2023-04-30T00:41:08.498Z,73.56
2023-04-30T00:44:07.030Z,73.12
2023-04-30T00:47:04.400Z,72.68
2023-04-30T00:50:02.184Z,72.50
2023-04-30T00:52:59.662Z,72.47
2023-04-30T00:55:57.522Z,72.31
2023-04-30T00:58:57.358Z,72.07
2023-04-30T01:01:55.225Z,71.98
2023-04-30T01:04:53.162Z,71.82
2023-04-30T01:07:51.171Z,71.65
2023-04-30T01:10:48.931Z,71.64
2023-04-30T01:13:46.723Z,71.70
2023-04-30T01:16:44.618Z,71.67
2023-04-30T01:19:42.007Z,71.42
2023-04-30T01:22:39.980Z,71.44
2023-04-30T01:25:37.406Z,71.43
2023-04-30T01:28:35.202Z,71.42
2023-04-30T01:31:33.132Z,71.40
2023-04-30T01:34:31.050Z,71.50
2023-04-30T01:37:28.497Z,71.34
2023-04-30T01:40:26.261Z,71.24
2023-04-30T01:43:24.038Z,71.14
2023-04-30T01:46:21.554Z,71.09
2023-04-30T01:49:19.364Z,71.12
2023-04-30T01:52:16.796Z,71.38
2023-04-30T01:55:14.628Z,71.52
2023-04-30T01:58:12.089Z,71.35
2023-04-30T02:01:10.065Z,71.37
2023-04-30T02:04:07.547Z,71.31
2023-04-30T02:07:06.077Z,71.05
2023-04-30T02:10:03.835Z,71.05
2023-04-30T02:13:01.299Z,71.03
2023-04-30T02:15:59.085Z,71.07
2023-04-30T02:18:56.946Z,71.13
2023-04-30T02:21:54.801Z,71.07
2023-04-30T02:24:53.907Z,71.16
2023-04-30T02:27:52.337Z,71.20
2023-04-30T02:30:49.768Z,71.07
2023-04-30T02:33:47.604Z,71.07
2023-04-30T02:36:45.041Z,71.05
2023-04-30T02:39:42.857Z,71.16
2023-04-30T02:42:40.893Z,71.23
2023-04-30T02:45:38.337Z,71.17
2023-04-30T02:48:36.269Z,71.18
2023-04-30T02:51:33.852Z,71.19
2023-04-30T02:54:31.783Z,71.14
2023-04-30T02:57:29.232Z,71.23
2023-04-30T03:00:27.031Z,71.21
2023-04-30T03:03:24.484Z,71.43
2023-04-30T03:06:22.354Z,71.53
2023-04-30T03:09:19.837Z,71.50
2023-04-30T03:12:17.666Z,71.52
2023-04-30T03:15:15.100Z,71.77
2023-04-30T03:18:12.934Z,72.06
2023-04-30T03:21:10.767Z,72.01
2023-04-30T03:24:08.634Z,72.04
2023-04-30T03:27:06.051Z,71.90
2023-04-30T03:30:04.529Z,71.58
2023-04-30T03:33:01.999Z,71.74
2023-04-30T03:35:59.900Z,71.79
2023-04-30T03:38:57.288Z,71.88
2023-04-30T03:41:55.132Z,71.77
2023-04-30T03:44:53.013Z,72.05
2023-04-30T03:47:50.505Z,72.02
2023-04-30T03:50:48.378Z,72.03
2023-04-30T03:53:46.356Z,71.97
2023-04-30T03:56:45.097Z,72.09
2023-04-30T03:59:43.362Z,72.06
2023-04-30T04:02:41.209Z,71.96
2023-04-30T04:05:38.690Z,71.92
2023-04-30T04:08:37.163Z,72.21
2023-04-30T04:11:34.552Z,72.48
2023-04-30T04:14:32.395Z,72.23
2023-04-30T04:17:30.306Z,71.75
2023-04-30T04:20:29.016Z,71.89
2023-04-30T04:23:27.147Z,71.55
2023-04-30T04:26:25.800Z,71.00
2023-04-30T04:29:23.605Z,70.82
2023-04-30T04:32:23.113Z,70.72
2023-04-30T04:35:20.707Z,70.67
2023-04-30T04:38:18.723Z,70.77
2023-04-30T04:41:17.075Z,70.64
2023-04-30T04:44:14.481Z,70.67
2023-04-30T04:47:13.098Z,70.63
2023-04-30T04:50:10.548Z,70.66
2023-04-30T04:53:08.194Z,70.77
2023-04-30T04:56:05.578Z,70.57
2023-04-30T04:59:03.346Z,70.40
2023-04-30T05:02:00.789Z,70.45
2023-04-30T05:04:58.425Z,70.40
2023-04-30T05:07:56.462Z,70.12
2023-04-30T05:10:53.862Z,69.96
2023-04-30T05:13:51.508Z,69.78
2023-04-30T05:16:49.845Z,69.57
2023-04-30T05:19:52.958Z,69.41
2023-04-30T05:22:50.719Z,69.28
2023-04-30T05:25:48.350Z,69.06
2023-04-30T05:28:46.138Z,68.88
2023-04-30T05:31:43.699Z,68.52
2023-04-30T05:34:41.587Z,68.45
2023-04-30T05:37:39.531Z,68.00
2023-04-30T05:40:37.133Z,67.82
2023-04-30T05:43:34.889Z,67.82
2023-04-30T05:46:32.494Z,67.55
2023-04-30T05:49:30.187Z,67.31
2023-04-30T05:52:27.573Z,67.15
2023-04-30T05:55:25.312Z,66.96
2023-04-30T05:58:22.747Z,66.99
2023-04-30T06:01:20.597Z,66.56
2023-04-30T06:04:18.411Z,66.49
2023-04-30T06:07:15.859Z,66.50
2023-04-30T06:10:13.872Z,65.84
2023-04-30T06:13:11.317Z,64.92
2023-04-30T06:16:09.696Z,64.59
2023-04-30T06:19:07.129Z,64.45
2023-04-30T06:22:04.797Z,63.87
2023-04-30T06:25:02.530Z,63.18
2023-04-30T06:27:59.930Z,62.39
2023-04-30T06:30:57.593Z,62.49
2023-04-30T06:33:55.062Z,62.58
2023-04-30T06:36:52.749Z,62.27
2023-04-30T06:39:50.253Z,61.67
2023-04-30T06:42:47.953Z,61.39
2023-04-30T06:45:45.679Z,61.09
2023-04-30T06:48:43.058Z,60.67
2023-04-30T06:51:40.669Z,59.28
2023-04-30T06:54:38.067Z,59.05
2023-04-30T06:57:37.511Z,58.11
2023-04-30T07:00:34.950Z,58.82
2023-04-30T07:03:32.870Z,57.45
2023-04-30T07:06:30.964Z,57.38
2023-04-30T07:09:28.981Z,56.75
2023-04-30T07:12:27.154Z,56.03
2023-04-30T07:15:24.712Z,55.23
2023-04-30T07:18:22.369Z,54.32
2023-04-30T07:21:19.854Z,53.41
2023-04-30T07:24:17.493Z,53.04
2023-04-30T07:27:14.913Z,52.23
2023-04-30T07:30:12.622Z,50.89
2023-04-30T07:33:10.156Z,52.08
2023-04-30T07:36:07.781Z,51.18
2023-04-30T07:39:06.076Z,50.56
2023-04-30T07:42:04.188Z,50.28
2023-04-30T07:45:04.628Z,49.91
2023-04-30T07:48:02.177Z,49.67
2023-04-30T07:50:59.964Z,47.33
2023-04-30T07:53:57.409Z,47.24
2023-04-30T07:59:53.470Z,46.10
2023-04-30T08:02:51.260Z,45.32
2023-04-30T08:05:48.963Z,45.77
2023-04-30T08:08:47.059Z,46.19
2023-04-30T08:11:45.457Z,45.78
2023-04-30T08:14:42.891Z,45.99
2023-04-30T08:17:40.508Z,45.20
2023-04-30T08:20:38.611Z,44.35
2023-04-30T08:23:36.407Z,44.31
2023-04-30T08:26:33.984Z,44.16
2023-04-30T08:29:31.505Z,44.34
2023-04-30T08:32:29.665Z,44.43
2023-04-30T08:35:27.076Z,43.65
2023-04-30T08:38:26.954Z,43.77
2023-04-30T08:41:25.588Z,43.79
2023-04-30T08:44:23.254Z,43.93
2023-04-30T08:47:21.052Z,44.41
2023-04-30T08:50:18.824Z,44.83
2023-04-30T08:53:17.727Z,44.08
2023-04-30T08:56:15.471Z,44.43
2023-04-30T08:59:13.058Z,44.61
2023-04-30T09:02:11.109Z,44.58
2023-04-30T09:05:08.781Z,44.41
2023-04-30T09:08:06.180Z,44.69
2023-04-30T09:11:03.840Z,45.57
2023-04-30T09:14:01.429Z,45.78
2023-04-30T09:16:58.865Z,45.94
2023-04-30T09:19:56.940Z,46.15
2023-04-30T09:22:54.728Z,45.89
2023-04-30T09:25:53.830Z,46.03
2023-04-30T09:28:52.553Z,46.26
2023-04-30T09:31:50.367Z,46.32
2023-04-30T09:34:48.366Z,46.07
2023-04-30T09:37:46.069Z,46.05
2023-04-30T09:40:43.813Z,45.95
2023-04-30T09:43:41.265Z,45.64
2023-04-30T09:46:39.000Z,45.03
2023-04-30T09:49:36.675Z,44.29
2023-04-30T09:52:34.097Z,43.63
2023-04-30T09:55:31.819Z,43.90
2023-04-30T09:58:29.271Z,43.31
2023-04-30T10:01:27.573Z,42.19
2023-04-30T10:04:25.173Z,41.29
2023-04-30T10:07:23.161Z,40.90
2023-04-30T10:10:20.963Z,39.15
2023-04-30T10:13:18.340Z,39.28
2023-04-30T10:16:18.788Z,39.95
2023-04-30T10:19:16.751Z,39.44
2023-04-30T10:22:14.751Z,39.64
2023-04-30T10:25:13.681Z,39.62
2023-04-30T10:28:11.156Z,38.94
2023-04-30T10:31:09.329Z,38.74
2023-04-30T10:34:07.095Z,39.10
2023-04-30T10:37:04.642Z,38.78
2023-04-30T10:40:05.271Z,38.53
2023-04-30T10:43:02.938Z,37.74
2023-04-30T10:46:00.760Z,37.66
2023-04-30T10:48:58.980Z,37.18
2023-04-30T10:51:58.808Z,36.99
2023-04-30T10:54:56.258Z,37.56
2023-04-30T10:57:55.880Z,37.61
2023-04-30T11:00:53.348Z,37.13
2023-04-30T11:03:50.964Z,37.28
2023-04-30T11:06:48.547Z,37.62
2023-04-30T11:09:46.442Z,38.35
2023-04-30T11:12:44.022Z,37.92
2023-04-30T11:15:41.790Z,37.54
2023-04-30T11:18:39.526Z,37.87
2023-04-30T11:21:36.920Z,37.82
2023-04-30T11:24:34.652Z,38.24
2023-04-30T11:27:32.047Z,39.17
2023-04-30T11:30:30.001Z,39.26
2023-04-30T11:33:27.966Z,38.97
2023-04-30T11:36:25.398Z,38.97
2023-04-30T11:39:22.945Z,38.05
2023-04-30T11:42:20.383Z,37.30
2023-04-30T11:45:21.135Z,37.45
2023-04-30T11:48:18.622Z,37.50
2023-04-30T11:51:16.217Z,37.89
2023-04-30T11:54:13.886Z,38.53
2023-04-30T11:57:11.544Z,38.18
2023-04-30T12:00:11.204Z,38.10
2023-04-30T12:03:08.805Z,38.57
2023-04-30T12:06:06.707Z,38.48
2023-04-30T12:09:07.534Z,38.20
2023-04-30T12:12:04.973Z,38.52
2023-04-30T12:15:03.050Z,37.87
2023-04-30T12:18:00.553Z,38.23
2023-04-30T12:20:58.278Z,38.27
2023-04-30T12:23:55.681Z,38.71
2023-04-30T12:26:53.496Z,38.99
2023-04-30T12:29:52.023Z,39.00
2023-04-30T12:32:49.560Z,39.13
2023-04-30T12:35:48.138Z,38.27
2023-04-30T12:38:45.605Z,38.25
2023-04-30T12:41:43.668Z,38.49
2023-04-30T12:44:41.126Z,38.35
2023-04-30T12:47:39.243Z,37.93
2023-04-30T12:50:36.991Z,37.94
2023-04-30T12:53:34.380Z,37.67
2023-04-30T12:56:32.609Z,38.17
2023-04-30T12:59:30.092Z,38.39
2023-04-30T13:02:27.813Z,38.98
2023-04-30T13:05:25.347Z,39.28
2023-04-30T13:08:23.061Z,39.13
2023-04-30T13:11:20.853Z,38.80
2023-04-30T13:14:18.736Z,38.95
2023-04-30T13:17:16.387Z,39.33
2023-04-30T13:20:13.823Z,39.66
2023-04-30T13:23:12.275Z,40.02
2023-04-30T13:26:09.667Z,40.40
2023-04-30T13:29:07.735Z,40.95
2023-04-30T13:32:05.268Z,41.30
2023-04-30T13:35:03.393Z,41.76
2023-04-30T13:38:01.040Z,41.76
2023-04-30T13:40:58.422Z,41.88
2023-04-30T13:43:56.045Z,42.11
2023-04-30T13:46:53.584Z,41.65
2023-04-30T13:49:51.203Z,41.59
2023-04-30T13:52:48.621Z,41.59
2023-04-30T13:55:46.329Z,40.81
2023-04-30T13:58:44.262Z,40.50
2023-04-30T14:01:42.429Z,40.48
2023-04-30T14:04:40.242Z,39.52
2023-04-30T14:07:39.083Z,39.88
2023-04-30T14:10:36.723Z,39.77
2023-04-30T14:13:34.229Z,39.63
2023-04-30T14:16:31.898Z,39.64
2023-04-30T14:19:29.379Z,39.65
2023-04-30T14:22:27.037Z,39.70
2023-04-30T14:25:24.812Z,39.41
2023-04-30T14:28:22.246Z,39.78
2023-04-30T14:31:19.993Z,39.72
2023-04-30T14:34:17.419Z,39.95
2023-04-30T14:37:15.970Z,40.09
2023-04-30T14:40:13.341Z,40.42
2023-04-30T14:43:11.189Z,40.72
2023-04-30T14:46:08.859Z,40.76
2023-04-30T14:49:06.408Z,40.64
2023-04-30T14:52:04.200Z,40.62
2023-04-30T14:55:01.740Z,40.49
2023-04-30T14:57:59.375Z,39.70
2023-04-30T15:00:57.165Z,38.71
2023-04-30T15:03:54.745Z,38.63
2023-04-30T15:06:52.638Z,38.66
2023-04-30T15:09:50.101Z,38.81
2023-04-30T15:12:47.698Z,38.42
2023-04-30T15:15:47.233Z,37.88
2023-04-30T15:18:45.016Z,38.15
2023-04-30T15:21:42.692Z,38.14
2023-04-30T15:24:40.083Z,38.44
2023-04-30T15:27:39.339Z,38.61
2023-04-30T15:30:37.194Z,38.84
2023-04-30T15:33:39.720Z,39.08
2023-04-30T15:36:37.302Z,39.13
2023-04-30T15:39:35.524Z,39.28
2023-04-30T15:42:33.202Z,39.47
2023-04-30T15:45:30.620Z,39.50
2023-04-30T15:48:28.186Z,39.30
2023-04-30T15:51:25.633Z,39.29
2023-04-30T15:54:23.858Z,39.54
2023-04-30T15:57:21.778Z,39.40
2023-04-30T16:00:19.575Z,39.29
2023-04-30T16:03:17.270Z,39.63
2023-04-30T16:06:15.486Z,39.62
2023-04-30T16:09:13.299Z,39.26
2023-04-30T16:12:11.202Z,38.95
2023-04-30T16:15:08.938Z,39.36
2023-04-30T16:18:06.817Z,39.36
2023-04-30T16:21:05.906Z,39.56
2023-04-30T16:24:03.469Z,39.70
2023-04-30T16:27:01.271Z,39.52
2023-04-30T16:29:58.933Z,39.63
2023-04-30T16:32:56.515Z,40.08
2023-04-30T16:35:54.772Z,40.27
2023-04-30T16:38:52.164Z,40.47
2023-04-30T16:41:49.763Z,40.78
2023-04-30T16:44:47.564Z,41.09
2023-04-30T16:47:45.456Z,41.72
2023-04-30T16:50:43.169Z,41.82
2023-04-30T16:53:40.633Z,42.15
2023-04-30T16:56:38.439Z,42.69
2023-04-30T16:59:35.999Z,42.87
2023-04-30T17:02:33.813Z,42.99
2023-04-30T17:05:31.628Z,42.80
2023-04-30T17:08:29.039Z,42.83
2023-04-30T17:11:27.270Z,43.16
2023-04-30T17:14:24.833Z,43.31
2023-04-30T17:17:22.812Z,43.19
2023-04-30T17:20:21.061Z,43.25
2023-04-30T17:23:18.916Z,43.34
2023-04-30T17:26:16.366Z,43.75
2023-04-30T17:29:14.047Z,43.95
2023-04-30T17:32:11.856Z,44.60
2023-04-30T17:35:09.899Z,45.08
2023-04-30T17:38:07.873Z,45.27
2023-04-30T17:41:05.301Z,45.43
2023-04-30T17:44:03.328Z,45.72
2023-04-30T17:47:01.376Z,46.17
2023-04-30T17:49:59.649Z,46.39
2023-04-30T17:52:58.677Z,46.90
2023-04-30T17:56:00.003Z,47.43
2023-04-30T17:58:59.019Z,48.00
2023-04-30T18:01:57.727Z,48.32
2023-04-30T18:04:55.490Z,48.96
2023-04-30T18:07:52.918Z,49.63
2023-04-30T18:10:52.038Z,50.28
2023-04-30T18:13:49.799Z,50.87
2023-04-30T18:16:47.786Z,51.27
2023-04-30T18:19:48.883Z,51.84
2023-04-30T18:22:46.866Z,52.35
2023-04-30T18:25:44.661Z,52.69
2023-04-30T18:28:42.541Z,52.97
2023-04-30T18:31:40.365Z,53.35
2023-04-30T18:34:38.356Z,53.80
2023-04-30T18:37:35.813Z,54.18
2023-04-30T18:40:33.496Z,54.47
2023-04-30T18:43:30.962Z,55.03
2023-04-30T18:46:29.339Z,55.36
2023-04-30T18:49:27.292Z,55.78
2023-04-30T18:52:26.191Z,56.06
2023-04-30T18:55:24.480Z,56.55
2023-04-30T18:58:22.398Z,56.94
2023-04-30T19:01:21.851Z,57.31
2023-04-30T19:04:19.925Z,57.50
2023-04-30T19:07:19.962Z,57.96
2023-04-30T19:10:17.500Z,58.28
2023-04-30T19:13:15.507Z,58.37
2023-04-30T19:16:13.623Z,58.42
2023-04-30T19:19:11.722Z,58.74
2023-04-30T19:22:10.105Z,58.99
2023-04-30T19:25:08.252Z,59.33
2023-04-30T19:28:06.649Z,59.57
2023-04-30T19:31:08.601Z,59.88
2023-04-30T19:34:06.086Z,60.15
2023-04-30T19:37:04.573Z,60.47
2023-04-30T19:40:07.454Z,60.65
2023-04-30T19:43:05.851Z,60.84
2023-04-30T19:46:03.701Z,61.25
2023-04-30T19:49:02.056Z,61.51
2023-04-30T19:52:00.375Z,62.30
2023-04-30T19:54:58.553Z,62.70
2023-04-30T19:57:57.860Z,62.87
2023-04-30T20:00:56.391Z,62.97
2023-04-30T20:03:54.329Z,62.90
2023-04-30T20:06:57.632Z,62.97
2023-04-30T20:09:59.730Z,62.93
2023-04-30T20:12:57.956Z,63.50
2023-04-30T20:15:56.044Z,63.80
2023-04-30T20:18:55.998Z,64.14
2023-04-30T20:21:54.638Z,64.29
2023-04-30T20:24:53.712Z,64.42
2023-04-30T20:27:52.066Z,64.46
2023-04-30T20:30:50.650Z,64.53
2023-04-30T20:33:48.956Z,64.71
2023-04-30T20:36:47.361Z,64.98
2023-04-30T20:39:45.287Z,65.11
2023-04-30T20:42:43.600Z,65.19
2023-04-30T20:45:42.860Z,65.20
2023-04-30T20:48:41.019Z,64.85
2023-04-30T20:51:40.012Z,65.22
2023-04-30T20:54:37.497Z,65.51
2023-04-30T20:57:35.399Z,65.49
2023-04-30T21:00:33.091Z,65.90
2023-04-30T21:03:31.062Z,66.08
2023-04-30T21:06:29.260Z,66.20
2023-04-30T21:09:27.414Z,66.27
2023-04-30T21:12:24.894Z,66.51
2023-04-30T21:15:22.829Z,66.93
2023-04-30T21:18:20.651Z,67.08
2023-04-30T21:21:18.128Z,67.20
2023-04-30T21:24:15.935Z,67.23
2023-04-30T21:27:13.792Z,67.40
2023-04-30T21:30:11.216Z,67.71
2023-04-30T21:33:09.103Z,67.79
2023-04-30T21:36:06.504Z,68.04
2023-04-30T21:39:04.656Z,68.20
2023-04-30T21:42:04.888Z,68.32
2023-04-30T21:45:02.893Z,68.33
2023-04-30T21:48:00.434Z,68.02
2023-04-30T21:50:58.415Z,67.62
2023-04-30T21:53:56.375Z,67.46
2023-04-30T21:56:54.153Z,67.40
2023-04-30T21:59:52.017Z,67.20
2023-04-30T22:02:49.749Z,67.07
2023-04-30T22:05:47.950Z,66.96
2023-04-30T22:08:45.360Z,66.81
2023-04-30T22:11:43.177Z,66.64
2023-04-30T22:14:40.545Z,66.46
2023-04-30T22:17:38.436Z,66.35
2023-04-30T22:20:37.081Z,66.47
2023-04-30T22:23:35.139Z,66.58
2023-04-30T22:26:32.866Z,66.48
2023-04-30T22:29:30.707Z,66.54
2023-04-30T22:32:28.828Z,66.69
2023-04-30T22:35:26.388Z,66.75
2023-04-30T22:38:24.523Z,66.73
2023-04-30T22:41:22.448Z,66.70
2023-04-30T22:44:20.960Z,66.72
2023-04-30T22:47:19.112Z,66.66
2023-04-30T22:50:16.622Z,66.14
2023-04-30T22:53:14.678Z,66.16
2023-04-30T22:56:12.178Z,66.14
2023-04-30T22:59:10.101Z,65.99
2023-04-30T23:02:07.550Z,65.99
2023-04-30T23:05:05.444Z,66.00
2023-04-30T23:08:03.236Z,65.88
2023-04-30T23:11:02.123Z,66.02
2023-04-30T23:13:59.516Z,66.05
2023-04-30T23:16:57.453Z,66.13
2023-04-30T23:19:55.191Z,66.38
2023-04-30T23:22:53.199Z,66.44
2023-04-30T23:25:50.595Z,66.51
2023-04-30T23:28:48.536Z,66.63
2023-04-30T23:31:46.829Z,66.73
2023-04-30T23:34:44.282Z,66.75
2023-04-30T23:37:42.177Z,66.72
2023-04-30T23:40:39.572Z,66.72
2023-04-30T23:43:37.434Z,66.64
2023-04-30T23:46:34.973Z,66.91
2023-04-30T23:49:32.870Z,67.00
2023-04-30T23:52:30.250Z,67.16
2023-04-30T23:55:28.181Z,67.53
2023-04-30T23:58:25.758Z,67.54
